Terminal Aerodrome Forecast
Issued by NWS

Home | Current Version | Previous Version | Text Only | Print | Product List | Glossary On
Versions: 1 2 3 4 5 6 7 8 9 10 11 12 13 14 15 16 17
000
FTUS43 KIND 101301 AAA
TAFHUF
TAF AMD
KHUF 101301Z 1013/1112 VRB03KT P6SM OVC090
     FM101500 24004KT P6SM SCT150
     FM101700 23005KT P6SM BKN090
     FM102300 16004KT P6SM BKN090
     FM110800 15008KT P6SM OVC060=

USA.gov is the U.S. government's official web portal to all federal, state and local government web resources and services.